Time;durP1;ratioP1;P1;durP2;ratioP2;P2;SDS_P1;SDS_P2;PMS_P1;PMS_P2;Temp;Humidity;BMP_temperature;BMP_pressure;BME280_temperature;BME280_humidity;BME280_pressure;Samples;Min_cycle;Max_cycle;Signal;HPM_P1;HPM_P2
2023/12/12 00:02:35;;;;;;;9.97;4.23;;;;;;;7.55;57.47;99303.25;10349288;28;20387;-73
2023/12/12 00:07:50;;;;;;;6.50;3.47;;;;;;;7.89;56.79;99286.88;10358856;28;20235;-73
2023/12/12 00:12:59;;;;;;;12.30;3.70;;;;;;;6.83;58.80;99423.09;10355629;28;20554;-73
2023/12/12 00:18:07;;;;;;;11.10;4.23;;;;;;;7.07;58.82;99379.66;10358567;28;20237;-72
2023/12/12 00:23:15;;;;;;;9.07;3.70;;;;;;;7.23;58.95;99331.69;10352896;28;20537;-74
2023/12/12 00:28:23;;;;;;;7.87;3.80;;;;;;;7.40;58.49;99305.81;10353955;28;20234;-74
2023/12/12 00:33:31;;;;;;;12.40;4.23;;;;;;;7.14;58.74;99356.69;10325763;28;20327;-71
2023/12/12 00:38:39;;;;;;;9.80;3.60;;;;;;;7.58;58.37;99316.22;10355692;28;20319;-74
2023/12/12 00:43:49;;;;;;;10.10;4.47;;;;;;;7.45;57.85;99358.53;10350058;28;20234;-71
2023/12/12 00:48:57;;;;;;;5.13;3.40;;;;;;;7.59;57.76;99331.16;10352419;28;20316;-73
2023/12/12 00:54:05;;;;;;;12.80;4.10;;;;;;;8.03;56.63;99303.94;10351698;28;20233;-74
2023/12/12 00:59:14;;;;;;;9.73;4.27;;;;;;;7.04;58.41;99426.06;10352092;28;20225;-72
2023/12/12 01:04:35;;;;;;;9.03;3.73;;;;;;;7.28;58.12;99406.53;10353589;28;20260;-73
2023/12/12 01:09:43;;;;;;;10.10;4.00;;;;;;;7.48;57.58;99395.47;10349444;28;20268;-74
2023/12/12 01:14:58;;;;;;;9.40;3.97;;;;;;;8.19;56.04;99312.78;10346713;28;20233;-74
2023/12/12 01:20:07;;;;;;;12.07;3.77;;;;;;;7.44;57.95;99365.72;10334932;28;20212;-73
2023/12/12 01:25:22;;;;;;;9.50;4.50;;;;;;;7.94;56.67;99312.97;10348963;28;20237;-73
2023/12/12 01:30:31;;;;;;;6.20;3.50;;;;;;;8.48;55.94;99216.81;10355433;28;20236;-74
2023/12/12 01:35:40;;;;;;;12.73;4.30;;;;;;;8.64;55.09;99285.16;10350159;28;20248;-72
2023/12/12 01:40:49;;;;;;;8.00;3.70;;;;;;;7.70;57.64;99357.41;10353503;28;20232;-73
2023/12/12 01:46:05;;;;;;;12.23;5.47;;;;;;;7.17;58.01;99437.00;10334032;28;20243;-73
2023/12/12 01:51:14;;;;;;;10.77;4.50;;;;;;;6.69;60.04;99403.31;10349312;28;20627;-73
2023/12/12 01:56:31;;;;;;;40.77;18.03;;;;;;;7.15;59.09;99353.00;10348411;28;20605;-74
2023/12/12 02:01:46;;;;;;;29.43;14.53;;;;;;;7.64;58.22;99288.84;10346975;28;20233;-74
2023/12/12 02:07:04;;;;;;;13.43;6.63;;;;;;;7.93;57.67;99218.06;10352438;28;20232;-72
2023/12/12 02:12:12;;;;;;;11.97;4.90;;;;;;;7.88;57.32;99265.72;10353857;28;20228;-73
2023/12/12 02:17:20;;;;;;;8.37;4.40;;;;;;;7.34;58.55;99327.81;10353307;28;20240;-73
2023/12/12 02:22:28;;;;;;;11.20;4.33;;;;;;;6.83;59.88;99338.00;10346554;28;20236;-72
2023/12/12 02:27:43;;;;;;;11.03;4.30;;;;;;;7.10;59.31;99294.16;10353103;28;20256;-73
2023/12/12 02:32:52;;;;;;;8.30;5.13;;;;;;;7.14;58.97;99301.63;10351898;28;20225;-74
2023/12/12 02:38:07;;;;;;;17.53;4.03;;;;;;;5.80;61.89;99414.53;10345816;28;20882;-75
2023/12/12 02:43:15;;;;;;;9.37;4.13;;;;;;;7.52;58.96;99192.59;10347978;28;20233;-74
2023/12/12 02:48:23;;;;;;;7.30;4.17;;;;;;;6.49;60.57;99331.88;10349747;28;20233;-72
2023/12/12 02:53:31;;;;;;;7.90;3.73;;;;;;;6.76;60.89;99234.13;10343537;28;20236;-73
2023/12/12 02:58:39;;;;;;;8.33;4.00;;;;;;;7.05;59.60;99222.03;10344777;28;20237;-75
2023/12/12 03:03:53;;;;;;;6.47;3.73;;;;;;;6.86;61.06;99228.63;10347906;28;20244;-75
2023/12/12 03:09:09;;;;;;;6.23;3.57;;;;;;;7.33;60.15;99188.56;10352751;28;20616;-73
2023/12/12 03:14:17;;;;;;;10.03;4.30;;;;;;;7.70;58.81;99189.59;10326088;28;20319;-74
2023/12/12 03:19:25;;;;;;;10.63;4.43;;;;;;;7.19;60.22;99226.63;10353353;28;20236;-73
2023/12/12 03:24:33;;;;;;;7.73;3.77;;;;;;;8.35;58.09;99117.19;10350635;28;20461;-73
2023/12/12 03:29:41;;;;;;;3.57;3.10;;;;;;;7.82;59.14;99197.19;10350880;28;20225;-73
2023/12/12 03:34:49;;;;;;;8.00;4.10;;;;;;;8.58;58.09;99087.72;10346648;28;20323;-73
2023/12/12 03:39:57;;;;;;;6.03;3.47;;;;;;;7.39;59.38;99236.78;10351463;28;20202;-73
2023/12/12 03:45:06;;;;;;;6.20;3.80;;;;;;;7.74;59.19;99219.38;10327229;28;20291;-73
2023/12/12 03:50:14;;;;;;;8.53;4.50;;;;;;;7.94;59.74;99134.47;10349070;28;20288;-74
2023/12/12 03:55:23;;;;;;;5.03;3.40;;;;;;;7.30;60.34;99233.34;10325090;28;20261;-73
2023/12/12 04:00:31;;;;;;;6.20;3.67;;;;;;;7.53;60.30;99207.56;10347950;28;20562;-72
2023/12/12 04:05:46;;;;;;;4.57;3.20;;;;;;;7.64;60.00;99190.31;10345901;28;20428;-73
2023/12/12 04:10:55;;;;;;;5.93;3.73;;;;;;;7.43;60.97;99185.69;10348601;28;20268;-72
2023/12/12 04:16:03;;;;;;;6.07;3.40;;;;;;;7.79;60.26;99157.56;10350239;28;20307;-74
2023/12/12 04:21:12;;;;;;;4.63;3.40;;;;;;;8.61;58.63;99093.50;10347469;28;20755;-72
2023/12/12 04:26:20;;;;;;;4.43;3.33;;;;;;;7.85;60.00;99199.50;10347727;28;20334;-72
2023/12/12 04:31:28;;;;;;;4.27;3.10;;;;;;;8.20;58.93;99170.50;10348233;28;20241;-73
2023/12/12 04:36:36;;;;;;;5.50;3.70;;;;;;;8.34;58.41;99172.34;10345683;28;20233;-74
2023/12/12 04:41:44;;;;;;;7.90;4.67;;;;;;;8.47;58.11;99190.34;10354676;28;20264;-76
2023/12/12 04:46:52;;;;;;;4.57;3.80;;;;;;;8.52;58.39;99163.13;10354466;28;20248;-75
2023/12/12 04:52:01;;;;;;;4.13;3.77;;;;;;;7.24;61.53;99272.16;10360106;28;20236;-75
2023/12/12 04:57:11;;;;;;;6.43;4.97;;;;;;;8.28;60.06;99133.09;10353567;28;20564;-76
2023/12/12 05:02:26;;;;;;;7.17;4.80;;;;;;;8.47;59.38;99119.19;10377553;28;20248;-76
2023/12/12 05:07:40;;;;;;;4.90;4.17;;;;;;;7.86;60.85;99159.34;10354999;28;20237;-77
2023/12/12 05:12:49;;;;;;;8.23;6.00;;;;;;;8.09;60.42;99139.81;10355084;28;20268;-79
2023/12/12 05:17:57;;;;;;;9.53;7.50;;;;;;;8.52;59.52;99089.28;10349268;28;20321;-77
2023/12/12 05:23:05;;;;;;;6.17;5.57;;;;;;;9.12;57.94;99100.59;10359940;28;20233;-76
2023/12/12 05:28:16;;;;;;;7.50;5.73;;;;;;;9.09;58.36;99076.97;10365851;28;20660;-76
2023/12/12 05:33:24;;;;;;;8.93;6.70;;;;;;;9.25;57.06;99121.25;10343111;28;20225;-76
2023/12/12 05:38:33;;;;;;;8.03;6.83;;;;;;;9.50;56.92;99111.00;10360799;28;20630;-77
2023/12/12 05:43:43;;;;;;;8.57;6.10;;;;;;;9.73;56.39;99107.25;10354381;28;20308;-77
2023/12/12 05:48:51;;;;;;;8.60;6.47;;;;;;;9.10;57.48;99192.56;10355561;28;20233;-78
2023/12/12 05:54:00;;;;;;;8.13;4.73;;;;;;;8.18;59.66;99236.50;10361707;28;20607;-77
2023/12/12 05:59:08;;;;;;;4.80;4.17;;;;;;;8.08;60.79;99156.78;10356949;28;20230;-77
2023/12/12 06:04:23;;;;;;;9.23;4.30;;;;;;;8.75;58.80;99086.47;10339419;28;20244;-77
2023/12/12 06:09:32;;;;;;;7.53;3.77;;;;;;;8.15;59.60;99172.88;10360862;28;20428;-77
2023/12/12 06:14:40;;;;;;;3.77;3.47;;;;;;;8.67;58.19;99163.91;10358343;28;20307;-78
2023/12/12 06:19:48;;;;;;;4.83;3.57;;;;;;;7.97;60.11;99125.31;10358504;28;20221;-77
2023/12/12 06:24:59;;;;;;;7.27;3.83;;;;;;;7.25;61.24;99191.28;10355272;28;20225;-77
2023/12/12 06:30:08;;;;;;;9.70;5.30;;;;;;;8.54;59.03;99033.09;10357719;28;20687;-78
2023/12/12 06:35:16;;;;;;;6.30;4.27;;;;;;;9.21;56.72;99032.72;10359667;28;20291;-78
2023/12/12 06:40:24;;;;;;;5.57;4.00;;;;;;;8.98;57.03;99112.19;10346637;28;20850;-79
2023/12/12 06:45:33;;;;;;;7.47;4.40;;;;;;;8.99;57.16;99121.81;10357852;28;20717;-78
2023/12/12 06:50:41;;;;;;;8.03;5.03;;;;;;;8.11;59.46;99135.94;10357276;28;20320;-79
2023/12/12 06:55:50;;;;;;;6.77;3.70;;;;;;;8.04;59.75;99172.34;10357283;28;20229;-77
2023/12/12 07:00:58;;;;;;;8.70;4.33;;;;;;;9.33;56.67;99091.75;10355084;28;20240;-77
2023/12/12 07:06:13;;;;;;;7.13;4.30;;;;;;;9.21;56.91;99128.84;10361229;28;20237;-76
2023/12/12 07:11:22;;;;;;;7.83;4.47;;;;;;;8.32;59.62;99128.22;10354847;28;20230;-77
2023/12/12 07:16:30;;;;;;;5.37;3.90;;;;;;;8.00;60.44;99122.25;10337711;28;20240;-78
2023/12/12 07:21:41;;;;;;;5.93;4.00;;;;;;;7.94;60.46;99131.00;10337892;28;20233;-78
2023/12/12 07:26:50;;;;;;;6.37;4.07;;;;;;;8.26;59.57;99089.81;10348176;28;20247;-77
2023/12/12 07:31:59;;;;;;;8.57;4.23;;;;;;;7.98;60.16;99077.13;10342604;28;20240;-79
2023/12/12 07:37:07;;;;;;;6.03;3.60;;;;;;;7.80;60.09;99130.75;10354715;28;20240;-80
2023/12/12 07:42:15;;;;;;;8.13;4.00;;;;;;;7.13;61.69;99144.81;10366237;28;20778;-80
2023/12/12 07:47:24;;;;;;;6.13;3.50;;;;;;;7.72;60.13;99069.59;10360849;28;20248;-77
2023/12/12 07:52:43;;;;;;;4.93;3.43;;;;;;;8.70;57.92;99018.69;10364908;28;20713;-80
2023/12/12 07:57:51;;;;;;;6.30;3.80;;;;;;;8.03;59.99;99026.81;10367825;28;20229;-77
2023/12/12 08:03:06;;;;;;;6.23;3.60;;;;;;;8.12;59.41;99040.84;10365724;28;20720;-77
2023/12/12 08:08:21;;;;;;;4.10;3.03;;;;;;;8.05;59.57;99014.13;10362457;28;20645;-79
2023/12/12 08:13:30;;;;;;;6.70;3.73;;;;;;;8.21;59.25;98982.94;10353426;28;20331;-77
2023/12/12 08:18:38;;;;;;;7.27;4.10;;;;;;;8.61;58.03;98972.66;10388925;28;20317;-79
2023/12/12 08:23:48;;;;;;;6.77;3.70;;;;;;;8.53;58.60;98992.28;10355998;28;20241;-78
2023/12/12 08:29:03;;;;;;;6.27;3.87;;;;;;;7.32;60.76;99112.38;10370882;28;20523;-77
2023/12/12 08:34:11;;;;;;;5.93;3.97;;;;;;;8.39;60.78;98907.88;10366197;28;20642;-78
2023/12/12 08:39:27;;;;;;;5.53;4.03;;;;;;;7.81;60.75;99027.69;10358527;28;20237;-79
2023/12/12 08:44:36;;;;;;;6.33;4.20;;;;;;;9.76;56.85;98925.97;10365343;28;20647;-77
2023/12/12 08:49:44;;;;;;;6.70;4.00;;;;;;;7.51;61.37;99081.78;10361211;28;20261;-77
2023/12/12 08:54:52;;;;;;;9.27;4.50;;;;;;;7.89;60.43;99065.75;10348533;28;20233;-76
2023/12/12 09:00:02;;;;;;;10.73;4.40;;;;;;;6.73;63.43;99102.31;10362952;28;20202;-78
2023/12/12 09:05:19;;;;;;;7.73;5.03;;;;;;;8.65;60.22;98917.91;10346391;28;20759;-78
2023/12/12 09:10:27;;;;;;;8.13;4.63;;;;;;;7.03;62.92;99045.78;10369832;28;20272;-77
2023/12/12 09:15:37;;;;;;;11.07;6.43;;;;;;;8.25;60.71;98961.03;10365924;28;20492;-78
2023/12/12 09:20:46;;;;;;;13.17;8.33;;;;;;;9.28;58.38;98906.44;10357012;28;20237;-78
2023/12/12 09:25:55;;;;;;;12.87;8.23;;;;;;;7.45;61.62;99079.03;10360850;28;20754;-78
2023/12/12 09:31:03;;;;;;;10.70;7.00;;;;;;;7.65;62.50;98984.28;10358581;28;20287;-78
2023/12/12 09:36:17;;;;;;;8.60;5.17;;;;;;;9.12;59.07;98889.75;10361756;28;20237;-78
2023/12/12 09:41:26;;;;;;;8.70;5.23;;;;;;;8.24;60.15;98998.53;10351562;28;20230;-78
2023/12/12 09:46:36;;;;;;;8.77;5.40;;;;;;;9.21;58.23;98935.78;10361573;28;20241;-78
2023/12/12 09:51:44;;;;;;;11.80;9.20;;;;;;;8.33;60.36;99002.72;10364723;28;20233;-78
2023/12/12 09:56:54;;;;;;;12.27;9.13;;;;;;;8.52;59.66;99005.78;10357658;28;20740;-78
2023/12/12 10:02:04;;;;;;;10.40;7.33;;;;;;;8.20;60.55;98997.25;10360106;28;20711;-78
2023/12/12 10:07:30;;;;;;;9.83;8.27;;;;;;;7.32;63.77;98888.00;10356485;28;20221;-79
2023/12/12 10:12:39;;;;;;;8.43;5.80;;;;;;;6.95;65.85;98783.34;10351370;28;20688;-78
2023/12/12 10:17:47;;;;;;;6.50;5.17;;;;;;;6.83;65.70;98859.28;10358357;28;20233;-78
2023/12/12 10:23:00;;;;;;;6.93;4.30;;;;;;;5.76;68.70;98876.91;10355832;28;20611;-78
2023/12/12 10:28:09;;;;;;;9.07;4.93;;;;;;;6.80;66.69;98746.97;10356263;28;20229;-78
2023/12/12 10:33:17;;;;;;;8.00;5.33;;;;;;;6.78;66.05;98810.16;10338589;28;20782;-77
2023/12/12 10:38:25;;;;;;;7.50;5.53;;;;;;;6.18;67.65;98882.78;10355850;28;20237;-77
2023/12/12 10:43:40;;;;;;;4.73;4.30;;;;;;;5.98;72.78;98757.59;10350463;28;20764;-78
2023/12/12 10:48:49;;;;;;;7.30;4.53;;;;;;;6.46;72.01;98752.81;10355702;28;20319;-77
2023/12/12 10:54:00;;;;;;;4.87;4.10;;;;;;;6.93;71.04;98711.72;10359856;28;20252;-77
2023/12/12 10:59:08;;;;;;;4.30;3.90;;;;;;;7.44;69.21;98731.31;10353841;28;20712;-77
2023/12/12 11:06:25;;;;;;;5.68;4.70;;;;;;;8.00;67.15;98760.75;10230016;27;8227076;-76
2023/12/12 11:11:37;;;;;;;5.83;4.87;;;;;;;7.78;69.23;98711.13;10461724;28;20250;-78
2023/12/12 11:16:48;;;;;;;5.37;4.87;;;;;;;7.90;69.42;98691.00;10478420;28;20484;-77
2023/12/12 11:22:04;;;;;;;3.80;3.50;;;;;;;7.80;68.88;98754.41;10480663;28;20314;-76
2023/12/12 11:27:12;;;;;;;4.30;3.90;;;;;;;8.10;68.41;98673.31;10474071;28;20249;-77
2023/12/12 11:32:24;;;;;;;4.30;3.90;;;;;;;8.35;67.55;98718.13;10475797;28;20250;-76
2023/12/12 11:37:43;;;;;;;5.77;4.50;;;;;;;7.90;68.10;98754.94;10473132;28;20365;-77
2023/12/12 11:42:56;;;;;;;5.93;4.70;;;;;;;9.04;65.88;98665.72;10473099;28;20315;-78
2023/12/12 11:48:06;;;;;;;6.63;5.90;;;;;;;8.54;66.98;98697.09;10474336;28;20640;-77
2023/12/12 11:53:38;;;;;;;6.83;5.97;;;;;;;8.67;66.35;98691.84;10471951;28;20282;-77
2023/12/12 11:58:52;;;;;;;7.77;6.17;;;;;;;8.56;66.81;98685.25;10473767;28;20239;-78
2023/12/12 12:04:06;;;;;;;7.83;6.60;;;;;;;9.45;64.66;98662.13;10470109;28;20268;-78
2023/12/12 12:09:16;;;;;;;8.07;6.10;;;;;;;7.98;67.90;98784.06;10473770;28;20668;-79
2023/12/12 12:14:24;;;;;;;6.13;5.20;;;;;;;8.08;68.37;98739.28;10457829;28;20948;-77
2023/12/12 12:19:38;;;;;;;4.77;4.20;;;;;;;7.24;72.29;98665.41;10433625;28;20227;-77
2023/12/12 12:24:47;;;;;;;5.80;5.20;;;;;;;8.31;69.08;98596.13;10440111;28;20224;-77
2023/12/12 12:30:00;;;;;;;5.87;4.23;;;;;;;8.31;67.06;98676.91;10432905;28;20231;-79
2023/12/12 12:35:09;;;;;;;5.03;3.87;;;;;;;8.89;65.36;98617.88;10427223;28;20243;-76
2023/12/12 12:40:34;;;;;;;4.10;3.80;;;;;;;7.40;71.45;98659.00;10430274;28;20270;-78
2023/12/12 12:45:49;;;;;;;5.57;4.00;;;;;;;9.08;66.91;98527.38;10446980;28;20246;-77
2023/12/12 12:50:58;;;;;;;5.73;5.07;;;;;;;9.32;64.78;98600.69;10432925;28;20318;-77
2023/12/12 12:56:07;;;;;;;4.40;4.00;;;;;;;9.30;65.45;98594.72;10444796;28;20499;-78
2023/12/12 13:01:15;;;;;;;7.63;6.00;;;;;;;8.95;67.40;98560.22;10443780;28;20259;-77
2023/12/12 13:06:30;;;;;;;4.60;4.20;;;;;;;8.76;68.24;98561.81;10485662;28;20450;-77
2023/12/12 13:11:39;;;;;;;4.83;4.43;;;;;;;9.76;64.63;98577.84;10480124;28;20266;-77
2023/12/12 13:16:47;;;;;;;4.30;3.90;;;;;;;9.40;66.91;98563.13;10458917;28;20851;-76
2023/12/12 13:21:55;;;;;;;6.10;4.30;;;;;;;8.76;67.01;98692.50;10459910;28;20335;-77
2023/12/12 13:27:04;;;;;;;5.07;4.57;;;;;;;9.28;66.13;98628.81;10469413;28;20232;-77
2023/12/12 13:32:12;;;;;;;6.13;5.50;;;;;;;9.69;64.35;98638.50;10475293;28;20227;-77
2023/12/12 13:37:20;;;;;;;5.83;5.23;;;;;;;10.12;64.57;98576.56;10473358;28;20318;-76
2023/12/12 13:42:28;;;;;;;6.20;5.63;;;;;;;9.16;67.50;98640.13;10482307;28;20251;-78
2023/12/12 13:47:36;;;;;;;5.10;4.63;;;;;;;9.44;66.08;98648.97;10478855;28;20228;-78
2023/12/12 13:52:45;;;;;;;5.27;4.77;;;;;;;9.75;65.67;98598.41;10489646;28;20697;-77
2023/12/12 13:57:53;;;;;;;4.30;3.90;;;;;;;9.07;65.61;98716.03;10478317;28;20227;-77
2023/12/12 14:03:08;;;;;;;5.03;4.63;;;;;;;8.42;69.85;98694.19;10474709;28;20750;-77
2023/12/12 14:08:26;;;;;;;3.87;3.50;;;;;;;7.96;71.23;98708.03;10494665;28;20227;-78
2023/12/12 14:13:34;;;;;;;3.40;3.10;;;;;;;7.86;72.89;98653.25;10469342;28;20241;-77
2023/12/12 14:18:42;;;;;;;3.67;3.37;;;;;;;8.56;69.71;98631.09;10461777;28;20703;-76
2023/12/12 14:23:50;;;;;;;4.17;3.00;;;;;;;8.65;70.23;98605.88;10483816;28;20642;-77
2023/12/12 14:28:59;;;;;;;3.20;2.90;;;;;;;8.48;70.38;98642.75;10477583;28;20231;-77
2023/12/12 14:34:07;;;;;;;2.80;2.60;;;;;;;8.76;69.17;98649.84;10471344;28;20231;-77
2023/12/12 14:39:17;;;;;;;3.00;2.80;;;;;;;10.43;64.54;98578.50;10475133;28;20224;-77
2023/12/12 14:44:25;;;;;;;3.13;2.83;;;;;;;10.00;66.81;98576.38;10470988;28;20234;-78
2023/12/12 14:49:33;;;;;;;3.60;3.30;;;;;;;10.53;64.19;98575.38;10460479;28;20250;-77
2023/12/12 14:54:42;;;;;;;3.60;3.30;;;;;;;10.30;64.77;98606.09;10453015;28;20513;-77
2023/12/12 14:59:53;;;;;;;4.33;3.90;;;;;;;10.70;61.95;98619.31;10461044;28;20211;-74
2023/12/12 15:05:24;;;;;;;7.00;5.10;;;;;;;11.42;60.44;98608.38;10458910;28;20234;-74
2023/12/12 15:10:32;;;;;;;5.00;4.50;;;;;;;11.10;62.41;98585.34;10448587;28;20619;-74
2023/12/12 15:15:41;;;;;;;8.67;5.80;;;;;;;10.97;61.01;98648.66;10466338;28;20257;-76
2023/12/12 15:20:49;;;;;;;6.50;5.40;;;;;;;9.52;66.17;98689.66;10460538;28;20230;-75
2023/12/12 15:25:58;;;;;;;6.43;5.70;;;;;;;9.70;65.42;98657.00;10462102;28;20243;-74
2023/12/12 15:31:06;;;;;;;7.10;6.40;;;;;;;10.04;64.72;98638.25;10469229;28;20227;-76
2023/12/12 15:36:15;;;;;;;6.77;4.97;;;;;;;9.38;65.79;98680.81;10463429;28;20733;-75
2023/12/12 15:41:22;;;;;;;6.63;5.13;;;;;;;9.93;65.63;98562.22;10461522;28;20224;-75
2023/12/12 15:46:30;;;;;;;5.80;4.17;;;;;;;10.17;64.17;98570.59;10446067;28;20726;-74
2023/12/12 15:51:38;;;;;;;4.03;3.40;;;;;;;9.41;66.61;98607.47;10465763;28;20692;-74
2023/12/12 15:56:47;;;;;;;4.53;3.93;;;;;;;9.53;66.96;98563.13;10470485;28;20234;-74
2023/12/12 16:02:02;;;;;;;4.80;4.40;;;;;;;9.94;65.20;98548.66;10471048;28;20260;-75
2023/12/12 16:07:17;;;;;;;4.50;4.10;;;;;;;9.14;66.91;98627.97;10476783;28;20334;-75
2023/12/12 16:12:26;;;;;;;4.30;3.80;;;;;;;10.23;64.02;98537.66;10482584;28;20778;-75
2023/12/12 16:17:35;;;;;;;3.80;3.50;;;;;;;9.78;65.74;98546.41;10454954;28;20646;-74
2023/12/12 16:22:46;;;;;;;4.17;3.60;;;;;;;9.75;65.42;98546.81;10446592;28;20228;-74
2023/12/12 16:27:56;;;;;;;4.50;4.10;;;;;;;9.33;66.97;98568.47;10473069;28;20361;-74
2023/12/12 16:33:05;;;;;;;7.93;5.10;;;;;;;9.44;67.30;98548.31;10469641;28;20340;-75
2023/12/12 16:38:18;;;;;;;6.60;5.40;;;;;;;10.02;65.06;98525.41;10463313;28;20235;-75
2023/12/12 16:43:33;;;;;;;7.60;6.10;;;;;;;9.87;65.79;98526.50;10481739;28;20247;-75
2023/12/12 16:48:44;;;;;;;7.70;6.63;;;;;;;10.09;65.83;98483.41;10493308;28;20260;-74
2023/12/12 16:53:53;;;;;;;9.30;6.77;;;;;;;9.94;65.70;98511.25;10477593;28;20254;-75
2023/12/12 16:59:04;;;;;;;7.57;6.53;;;;;;;9.67;67.42;98523.84;10458082;28;20282;-75
2023/12/12 17:04:18;;;;;;;8.23;7.10;;;;;;;10.58;64.92;98475.75;10455388;28;20413;-75
2023/12/12 17:09:27;;;;;;;7.53;6.53;;;;;;;9.81;67.29;98532.63;10470578;28;20245;-76
2023/12/12 17:14:34;;;;;;;8.17;6.43;;;;;;;9.42;67.12;98590.44;10468107;28;20235;-75
2023/12/12 17:19:43;;;;;;;8.07;6.57;;;;;;;9.64;66.82;98556.31;10453757;28;20258;-74
2023/12/12 17:24:57;;;;;;;8.07;7.17;;;;;;;9.64;66.76;98569.66;10476518;28;20242;-75
2023/12/12 17:30:12;;;;;;;9.93;8.27;;;;;;;9.41;69.11;98503.34;10452683;28;20240;-73
2023/12/12 17:35:20;;;;;;;11.30;9.60;;;;;;;9.57;70.29;98457.50;10470065;28;20267;-75
2023/12/12 17:40:35;;;;;;;12.73;10.17;;;;;;;9.51;70.57;98458.31;10470880;28;20588;-74
2023/12/12 17:45:43;;;;;;;13.47;9.97;;;;;;;8.48;73.51;98502.25;10486531;28;20270;-74
2023/12/12 17:50:51;;;;;;;10.27;9.10;;;;;;;8.84;72.57;98498.41;10469021;28;20318;-74
2023/12/12 17:56:00;;;;;;;10.73;9.47;;;;;;;8.63;72.93;98514.59;10463954;28;20301;-76
2023/12/12 18:01:12;;;;;;;9.53;8.63;;;;;;;9.24;71.63;98432.72;10469512;28;20230;-75
2023/12/12 18:06:26;;;;;;;10.70;7.60;;;;;;;8.99;70.54;98524.09;10482510;28;20626;-76
2023/12/12 18:11:34;;;;;;;9.37;6.77;;;;;;;9.66;69.80;98418.00;10471881;28;20260;-75
2023/12/12 18:16:42;;;;;;;7.07;5.87;;;;;;;9.78;68.97;98442.22;10479739;28;20574;-75
2023/12/12 18:21:50;;;;;;;4.10;3.70;;;;;;;8.99;70.88;98460.91;10470777;28;20234;-76
2023/12/12 18:26:59;;;;;;;3.93;3.63;;;;;;;8.72;72.32;98461.88;10465275;28;20330;-74
2023/12/12 18:32:14;;;;;;;4.43;3.57;;;;;;;9.24;69.85;98424.72;10474188;28;20296;-75
2023/12/12 18:37:23;;;;;;;3.63;2.83;;;;;;;8.05;72.95;98499.88;10474609;28;20235;-74
2023/12/12 18:42:34;;;;;;;3.10;2.90;;;;;;;8.44;71.86;98453.03;10456291;28;20729;-75
2023/12/12 18:47:42;;;;;;;4.37;3.40;;;;;;;8.89;70.26;98465.00;10452946;28;20279;-76
2023/12/12 18:52:53;;;;;;;3.27;2.80;;;;;;;9.02;69.54;98468.47;10475648;28;20223;-76
2023/12/12 18:58:00;;;;;;;3.40;3.10;;;;;;;9.70;67.45;98432.59;10484470;28;20593;-75
2023/12/12 19:03:15;;;;;;;3.37;3.07;;;;;;;9.06;69.17;98471.53;10459925;28;20350;-75
2023/12/12 19:08:31;;;;;;;3.23;2.93;;;;;;;9.57;67.77;98428.13;10463543;28;20235;-76
2023/12/12 19:13:38;;;;;;;4.30;3.37;;;;;;;8.45;70.55;98526.66;10478000;28;20318;-76
2023/12/12 19:18:47;;;;;;;2.97;2.77;;;;;;;9.27;69.52;98429.66;10477422;28;20259;-76
2023/12/12 19:24:05;;;;;;;3.60;2.60;;;;;;;8.66;68.78;98546.19;10485413;28;20280;-74
2023/12/12 19:29:14;;;;;;;4.83;2.80;;;;;;;9.05;68.05;98483.25;10484810;28;20714;-75
2023/12/12 19:34:22;;;;;;;4.90;4.43;;;;;;;8.18;70.58;98536.41;10484742;28;20277;-76
2023/12/12 19:39:33;;;;;;;3.50;3.20;;;;;;;9.22;67.43;98484.47;10495028;28;20235;-76
2023/12/12 19:44:41;;;;;;;6.10;5.50;;;;;;;9.91;66.27;98418.13;10479849;28;20218;-76
2023/12/12 19:49:49;;;;;;;3.50;3.17;;;;;;;8.13;69.42;98580.66;10469635;28;20226;-75
2023/12/12 19:54:57;;;;;;;3.23;2.97;;;;;;;9.06;67.88;98500.09;10489730;28;20222;-76
2023/12/12 20:00:09;;;;;;;2.93;2.40;;;;;;;8.18;70.31;98576.38;10452693;28;20208;-75
2023/12/12 20:05:23;;;;;;;4.03;2.70;;;;;;;8.53;70.11;98516.84;10476573;28;20326;-75
2023/12/12 20:10:32;;;;;;;3.40;3.10;;;;;;;9.36;67.86;98463.09;10485650;28;20239;-76
2023/12/12 20:15:42;;;;;;;4.00;3.00;;;;;;;9.81;66.22;98454.34;10497035;28;20394;-75
2023/12/12 20:20:52;;;;;;;5.10;3.77;;;;;;;10.31;64.45;98492.78;10488312;28;20579;-75
2023/12/12 20:26:03;;;;;;;3.53;2.93;;;;;;;9.15;67.63;98523.69;10494336;28;20281;-75
2023/12/12 20:31:12;;;;;;;4.67;3.67;;;;;;;9.50;65.73;98515.44;10488203;28;20231;-75
2023/12/12 20:36:21;;;;;;;5.20;4.03;;;;;;;9.87;64.26;98486.41;10468600;28;20572;-75
2023/12/12 20:41:29;;;;;;;3.63;3.10;;;;;;;9.56;64.10;98560.00;10476836;28;20322;-75
2023/12/12 20:46:38;;;;;;;3.87;3.40;;;;;;;9.16;65.57;98540.53;10463119;28;20238;-77
2023/12/12 20:51:48;;;;;;;4.80;3.60;;;;;;;9.55;64.71;98515.66;10453925;28;20242;-74
2023/12/12 20:57:01;;;;;;;3.40;3.00;;;;;;;8.92;64.95;98590.78;10452375;28;20243;-75
2023/12/12 21:02:15;;;;;;;3.10;2.80;;;;;;;8.93;64.89;98586.31;10469664;28;20285;-76
2023/12/12 21:07:30;;;;;;;6.60;3.23;;;;;;;9.13;65.29;98535.59;10450300;28;20739;-76
2023/12/12 21:12:38;;;;;;;2.87;2.67;;;;;;;8.97;64.59;98544.84;10455545;28;20637;-74
2023/12/12 21:17:50;;;;;;;2.93;2.40;;;;;;;9.08;64.16;98540.72;10470708;28;20231;-74
2023/12/12 21:22:58;;;;;;;2.73;2.50;;;;;;;8.37;65.46;98572.16;10477646;28;20243;-75
2023/12/12 21:28:06;;;;;;;3.87;2.90;;;;;;;8.51;64.98;98564.22;10464560;28;20235;-74
2023/12/12 21:33:14;;;;;;;2.50;2.30;;;;;;;8.10;64.58;98651.97;10461840;28;20235;-75
2023/12/12 21:38:22;;;;;;;4.00;2.70;;;;;;;7.89;65.52;98618.22;10468801;28;20235;-76
2023/12/12 21:43:30;;;;;;;3.33;2.70;;;;;;;7.80;67.91;98466.78;10457191;28;20714;-74
2023/12/12 21:48:38;;;;;;;4.00;2.10;;;;;;;7.92;67.31;98471.34;10470742;28;20715;-74
2023/12/12 21:53:46;;;;;;;2.47;2.27;;;;;;;6.98;69.75;98549.75;10464520;28;20235;-74
2023/12/12 21:58:54;;;;;;;2.60;2.40;;;;;;;8.41;66.77;98453.44;10469058;28;20238;-74
2023/12/12 22:04:08;;;;;;;3.30;2.60;;;;;;;8.40;64.47;98622.41;10469351;28;20236;-75
2023/12/12 22:09:25;;;;;;;3.90;2.93;;;;;;;9.12;64.31;98520.63;10471787;28;20312;-75
2023/12/12 22:14:33;;;;;;;5.97;4.00;;;;;;;9.24;63.03;98569.69;10471593;28;20257;-75
2023/12/12 22:19:41;;;;;;;6.83;3.90;;;;;;;9.32;63.32;98548.13;10472165;28;20266;-76
2023/12/12 22:25:06;;;;;;;3.37;2.57;;;;;;;8.95;63.99;98568.22;10472616;28;20720;-76
2023/12/12 22:30:14;;;;;;;3.50;2.90;;;;;;;6.95;68.37;98680.47;10454186;28;20236;-74
2023/12/12 22:35:22;;;;;;;3.67;2.90;;;;;;;8.75;65.22;98512.16;10454143;28;20696;-75
2023/12/12 22:40:30;;;;;;;3.90;3.10;;;;;;;8.98;64.35;98511.81;10472730;28;20239;-75
2023/12/12 22:45:44;;;;;;;3.23;2.40;;;;;;;8.27;65.28;98571.72;10458597;28;20230;-75
2023/12/12 22:50:53;;;;;;;3.30;3.00;;;;;;;7.77;67.01;98563.84;10469431;28;20623;-75
2023/12/12 22:56:01;;;;;;;6.03;3.13;;;;;;;7.27;69.01;98509.84;10449149;28;20700;-75
2023/12/12 23:01:10;;;;;;;2.80;2.60;;;;;;;6.35;69.50;98674.38;10459375;28;20645;-76
2023/12/12 23:06:31;;;;;;;4.43;2.80;;;;;;;7.97;66.17;98521.38;10465218;28;20560;-76
2023/12/12 23:11:40;;;;;;;4.83;2.40;;;;;;;8.12;65.85;98502.56;10466417;28;20230;-72
2023/12/12 23:16:49;;;;;;;2.90;2.60;;;;;;;7.68;64.72;98616.44;10462937;28;20228;-75
2023/12/12 23:21:57;;;;;;;2.53;2.33;;;;;;;8.70;63.39;98520.75;10462022;28;20377;-74
2023/12/12 23:27:07;;;;;;;3.47;2.80;;;;;;;7.70;65.48;98581.63;10455294;28;20322;-74
2023/12/12 23:32:16;;;;;;;2.83;2.13;;;;;;;6.83;67.52;98644.72;10467954;28;20231;-74
2023/12/12 23:37:24;;;;;;;2.40;2.20;;;;;;;7.24;65.46;98625.50;10470719;28;20231;-74
2023/12/12 23:42:32;;;;;;;3.33;2.00;;;;;;;7.82;65.14;98525.97;10473535;28;20239;-74
2023/12/12 23:47:40;;;;;;;2.13;2.00;;;;;;;7.88;63.84;98542.03;10459990;28;20798;-74
2023/12/12 23:52:48;;;;;;;2.70;2.47;;;;;;;8.53;61.80;98524.84;10466469;28;20266;-72
2023/12/12 23:57:56;;;;;;;2.50;2.40;;;;;;;7.93;62.91;98552.06;10462834;28;20254;-74
